TimeMDT,TemperatureF,Dew PointF,Humidity,Sea Level PressureIn,VisibilityMPH,Wind Direction,Wind SpeedMPH,Gust SpeedMPH,PrecipitationIn,Events,Conditions,WindDirDegrees,DateUTC
12:53 AM,53.1,30.9,43,30.06,10.0,West,4.6,-,N/A,,Clear,270,2012-10-01 06:53:00
1:53 AM,51.1,32.0,48,30.08,10.0,East,3.5,-,N/A,,Clear,80,2012-10-01 07:53:00
2:53 AM,52.0,30.9,45,30.07,10.0,East,4.6,-,N/A,,Clear,90,2012-10-01 08:53:00
3:53 AM,50.0,30.0,46,30.07,10.0,East,4.6,-,N/A,,Clear,80,2012-10-01 09:53:00
4:53 AM,48.9,32.0,52,30.09,10.0,ENE,6.9,-,N/A,,Clear,70,2012-10-01 10:53:00
5:53 AM,45.0,30.9,58,30.11,10.0,Calm,Calm,-,N/A,,Clear,0,2012-10-01 11:53:00
6:53 AM,46.9,32.0,56,30.13,10.0,East,6.9,-,N/A,,Clear,80,2012-10-01 12:53:00
7:53 AM,50.0,33.1,52,30.16,10.0,East,3.5,-,N/A,,Clear,100,2012-10-01 13:53:00
8:53 AM,55.0,34.0,45,30.18,10.0,SE,3.5,-,N/A,,Clear,130,2012-10-01 14:53:00
9:53 AM,60.1,37.0,42,30.18,10.0,SSE,5.8,-,N/A,,Clear,150,2012-10-01 15:53:00
10:53 AM,64.4,35.6,34,30.30,10.0,South,3.5,-,N/A,,Clear,180,2012-10-01 16:53:00
11:53 AM,70.0,35.1,28,30.13,10.0,Calm,Calm,-,N/A,,Clear,0,2012-10-01 17:53:00
12:53 PM,73.9,34.0,23,30.10,10.0,West,6.9,-,N/A,,Clear,260,2012-10-01 18:53:00
1:53 PM,75.9,34.0,22,30.07,10.0,Variable,5.8,-,N/A,,Clear,0,2012-10-01 19:53:00
2:53 PM,78.8,30.2,17,30.19,10.0,West,10.4,-,N/A,,Clear,280,2012-10-01 20:53:00
3:53 PM,79.0,32.0,18,30.01,10.0,West,11.5,16.1,N/A,,Clear,270,2012-10-01 21:53:00
4:53 PM,79.0,30.9,17,30.00,10.0,West,8.1,-,N/A,,Clear,270,2012-10-01 22:53:00
5:53 PM,78.1,30.9,18,30.00,10.0,West,9.2,-,N/A,,Clear,280,2012-10-01 23:53:00
6:53 PM,73.0,32.0,22,30.00,10.0,West,6.9,-,N/A,,Clear,270,2012-10-02 00:53:00
7:53 PM,69.1,30.0,23,30.01,10.0,North,4.6,-,N/A,,Clear,360,2012-10-02 01:53:00
8:53 PM,66.0,30.0,26,30.01,10.0,Calm,Calm,-,N/A,,Clear,0,2012-10-02 02:53:00
9:53 PM,60.8,26.6,27,30.15,10.0,East,3.5,-,N/A,,Clear,80,2012-10-02 03:53:00
10:53 PM,60.1,28.9,31,29.99,10.0,ENE,4.6,-,N/A,,Clear,70,2012-10-02 04:53:00
11:53 PM,55.0,30.0,38,30.00,10.0,Calm,Calm,-,N/A,,Clear,0,2012-10-02 05:53:00